createdAt,value
2018-05-14T00:01:11.378Z,12.50
2018-05-14T00:03:38.340Z,12.13
2018-05-14T00:06:04.557Z,14.20
2018-05-14T00:08:30.780Z,13.30
2018-05-14T00:10:56.995Z,12.83
2018-05-14T00:13:23.209Z,13.77
2018-05-14T00:15:50.157Z,15.67
2018-05-14T00:18:17.337Z,13.47
2018-05-14T00:20:43.579Z,13.80
2018-05-14T00:23:09.865Z,13.63
2018-05-14T00:25:36.115Z,14.43
2018-05-14T00:28:02.438Z,15.57
2018-05-14T00:30:28.699Z,13.73
2018-05-14T00:32:54.939Z,14.43
2018-05-14T00:35:21.164Z,14.63
2018-05-14T00:37:47.404Z,14.00
2018-05-14T00:40:13.621Z,14.67
2018-05-14T00:42:39.849Z,13.13
2018-05-14T00:45:06.075Z,12.67
2018-05-14T00:47:33.050Z,12.13
2018-05-14T00:49:59.259Z,12.40
2018-05-14T00:52:26.209Z,12.23
2018-05-14T00:55:04.631Z,11.60
2018-05-14T00:57:30.862Z,12.40
2018-05-14T00:59:57.102Z,13.27
2018-05-14T01:02:23.326Z,12.53
2018-05-14T01:04:49.552Z,12.50
2018-05-14T01:07:15.785Z,14.73
2018-05-14T01:09:42.024Z,14.43
2018-05-14T01:12:08.242Z,14.67
2018-05-14T01:14:34.474Z,14.80
2018-05-14T01:17:01.437Z,15.83
2018-05-14T01:19:28.442Z,15.37
2018-05-14T01:21:54.652Z,15.20
2018-05-14T01:24:20.897Z,14.20
2018-05-14T01:26:47.146Z,15.43
2018-05-14T01:29:13.421Z,16.77
2018-05-14T01:31:39.639Z,15.30
2018-05-14T01:34:05.860Z,16.53
2018-05-14T01:36:32.098Z,15.47
2018-05-14T01:38:58.304Z,16.73
2018-05-14T01:41:24.529Z,17.30
2018-05-14T01:43:50.748Z,16.87
2018-05-14T01:46:17.016Z,16.90
2018-05-14T01:48:43.237Z,17.87
2018-05-14T01:51:09.472Z,17.50
2018-05-14T01:53:35.689Z,16.20
2018-05-14T01:56:01.963Z,16.40
2018-05-14T01:58:28.180Z,14.90
2018-05-14T02:00:54.439Z,15.73
2018-05-14T02:03:20.671Z,15.20
2018-05-14T02:05:46.921Z,16.43
2018-05-14T02:08:13.125Z,16.43
2018-05-14T02:10:39.343Z,15.47
2018-05-14T02:13:05.577Z,16.17
2018-05-14T02:15:32.545Z,15.90
2018-05-14T02:17:59.503Z,16.00
2018-05-14T02:20:25.741Z,15.30
2018-05-14T02:22:52.691Z,16.80
2018-05-14T02:25:18.915Z,15.40
2018-05-14T02:27:45.945Z,17.00
2018-05-14T02:30:12.191Z,15.87
2018-05-14T02:32:38.424Z,16.40
2018-05-14T02:35:04.669Z,15.57
2018-05-14T02:37:30.870Z,14.80
2018-05-14T02:39:57.103Z,15.30
2018-05-14T02:42:23.315Z,17.30
2018-05-14T02:44:49.539Z,16.10
2018-05-14T02:47:15.783Z,16.37
2018-05-14T02:49:42.744Z,17.47
2018-05-14T02:52:08.984Z,17.40
2018-05-14T02:54:35.198Z,16.23
2018-05-14T02:57:01.428Z,15.40
2018-05-14T02:59:27.658Z,16.53
2018-05-14T03:01:53.895Z,17.57
2018-05-14T03:04:20.104Z,17.60
2018-05-14T03:06:47.119Z,18.07
2018-05-14T03:09:13.366Z,14.90
2018-05-14T03:11:39.598Z,17.10
2018-05-14T03:14:05.834Z,16.17
2018-05-14T03:16:32.093Z,16.40
2018-05-14T03:18:58.314Z,15.33
2018-05-14T03:21:24.550Z,19.10
2018-05-14T03:23:50.765Z,15.50
2018-05-14T03:26:17.029Z,15.83
2018-05-14T03:28:43.286Z,15.17
2018-05-14T03:31:09.542Z,16.27
2018-05-14T03:33:35.784Z,17.73
2018-05-14T03:36:02.054Z,15.63
2018-05-14T03:38:28.278Z,17.60
2018-05-14T03:40:54.541Z,16.80
2018-05-14T03:43:21.536Z,14.90
2018-05-14T03:45:47.782Z,16.47
2018-05-14T03:48:14.006Z,15.37
2018-05-14T03:50:40.267Z,15.43
2018-05-14T03:53:06.507Z,16.03
2018-05-14T03:55:32.767Z,16.37
2018-05-14T03:57:58.997Z,14.83
2018-05-14T04:00:37.406Z,15.13
2018-05-14T04:03:15.761Z,15.73
2018-05-14T04:05:54.030Z,15.53
2018-05-14T04:08:21.234Z,14.30
2018-05-14T04:10:47.463Z,15.40
2018-05-14T04:13:13.687Z,15.83
2018-05-14T04:15:39.938Z,15.93
2018-05-14T04:18:06.173Z,16.00
2018-05-14T04:20:32.751Z,16.47
2018-05-14T04:22:58.969Z,15.90
2018-05-14T04:25:25.187Z,14.90
2018-05-14T04:27:51.454Z,14.77
2018-05-14T04:30:17.730Z,14.40
2018-05-14T04:32:43.904Z,14.60
2018-05-14T04:35:10.123Z,15.40
2018-05-14T04:37:37.098Z,16.13
2018-05-14T04:40:04.086Z,16.70
2018-05-14T04:42:30.328Z,16.47
2018-05-14T04:44:56.565Z,14.60
2018-05-14T04:47:22.806Z,16.27
2018-05-14T04:49:49.045Z,15.87
2018-05-14T04:52:15.314Z,15.60
2018-05-14T04:54:41.529Z,15.00
2018-05-14T04:57:07.759Z,16.07
2018-05-14T04:59:33.983Z,16.57
2018-05-14T05:02:00.227Z,17.40
2018-05-14T05:04:26.450Z,15.60
2018-05-14T05:06:53.478Z,12.00
2018-05-14T05:09:19.687Z,14.60
2018-05-14T05:11:45.923Z,14.30
2018-05-14T05:14:12.156Z,12.20
2018-05-14T05:16:38.390Z,13.60
2018-05-14T05:19:04.631Z,11.20
2018-05-14T05:21:30.967Z,14.23
2018-05-14T05:23:57.221Z,14.53
2018-05-14T05:26:23.430Z,15.83
2018-05-14T05:28:49.685Z,15.63
2018-05-14T05:31:15.914Z,15.87
2018-05-14T05:33:42.894Z,15.20
2018-05-14T05:36:09.119Z,16.70
2018-05-14T05:38:35.335Z,15.80
2018-05-14T05:41:01.561Z,14.97
2018-05-14T05:43:27.819Z,14.73
2018-05-14T05:45:54.040Z,14.70
2018-05-14T05:48:20.272Z,15.17
2018-05-14T05:50:46.498Z,14.57
2018-05-14T05:53:12.709Z,14.60
2018-05-14T05:55:38.951Z,15.10
2018-05-14T05:58:05.929Z,14.53
2018-05-14T06:00:32.169Z,15.53
2018-05-14T06:02:58.385Z,14.93
2018-05-14T06:05:25.374Z,14.40
2018-05-14T06:07:51.599Z,14.50
2018-05-14T06:10:17.823Z,14.87
2018-05-14T06:12:44.776Z,14.87
2018-05-14T06:15:11.754Z,15.30
2018-05-14T06:17:37.977Z,14.90
2018-05-14T06:20:04.972Z,15.80
2018-05-14T06:22:31.387Z,15.37
2018-05-14T06:24:57.610Z,16.03
2018-05-14T06:27:23.842Z,17.30
2018-05-14T06:29:50.058Z,16.87
2018-05-14T06:32:16.302Z,15.97
2018-05-14T06:34:42.517Z,16.00
2018-05-14T06:37:08.758Z,17.27
2018-05-14T06:39:34.982Z,16.47
2018-05-14T06:42:01.222Z,18.00
2018-05-14T06:44:27.510Z,17.53
2018-05-14T06:46:53.709Z,17.90
2018-05-14T06:49:19.945Z,17.00
2018-05-14T06:51:46.186Z,17.27
2018-05-14T06:54:12.400Z,18.43
2018-05-14T06:56:38.628Z,17.23
2018-05-14T06:59:04.865Z,15.40
2018-05-14T07:01:31.100Z,13.57
2018-05-14T07:03:57.353Z,18.60
2018-05-14T07:06:23.677Z,15.40
2018-05-14T07:08:49.911Z,15.10
2018-05-14T07:11:16.148Z,16.30
2018-05-14T07:13:42.417Z,18.57
2018-05-14T07:16:08.632Z,19.20
2018-05-14T07:18:34.873Z,17.13
2018-05-14T07:21:01.858Z,17.90
2018-05-14T07:23:28.336Z,16.87
2018-05-14T07:25:54.537Z,16.13
2018-05-14T07:28:20.777Z,16.20
2018-05-14T07:30:47.000Z,16.77
2018-05-14T07:33:13.263Z,17.30
2018-05-14T07:35:39.473Z,17.07
2018-05-14T07:38:05.700Z,16.60
2018-05-14T07:40:32.022Z,16.10
2018-05-14T07:42:58.173Z,17.57
2018-05-14T07:45:24.390Z,18.20
2018-05-14T07:47:51.357Z,17.27
2018-05-14T07:50:17.619Z,17.70
2018-05-14T07:52:43.863Z,16.03
2018-05-14T07:55:10.075Z,16.73
2018-05-14T07:57:36.317Z,17.60
2018-05-14T08:00:02.594Z,16.40
2018-05-14T08:02:28.813Z,16.53
2018-05-14T08:04:55.040Z,15.43
2018-05-14T08:07:21.258Z,17.10
2018-05-14T08:09:48.220Z,16.63
2018-05-14T08:12:14.435Z,17.10
2018-05-14T08:14:40.666Z,16.03
2018-05-14T08:17:06.882Z,17.90
2018-05-14T08:19:33.117Z,16.07
2018-05-14T08:21:59.343Z,16.13
2018-05-14T08:24:25.815Z,15.90
2018-05-14T08:26:52.051Z,16.40
2018-05-14T08:29:18.303Z,17.17
2018-05-14T08:31:44.521Z,14.03
2018-05-14T08:34:10.748Z,14.80
2018-05-14T08:36:37.011Z,14.63
2018-05-14T08:39:03.309Z,13.07
2018-05-14T08:41:29.604Z,13.20
2018-05-14T08:43:55.768Z,12.00
2018-05-14T08:46:21.990Z,13.50
2018-05-14T08:48:48.242Z,12.80
2018-05-14T08:51:14.462Z,14.80
2018-05-14T08:53:40.732Z,13.90
2018-05-14T08:56:06.970Z,14.60
2018-05-14T08:58:33.303Z,13.83
2018-05-14T09:00:59.532Z,12.43
2018-05-14T09:03:25.752Z,14.63
2018-05-14T09:05:51.994Z,14.60
2018-05-14T09:08:18.216Z,13.03
2018-05-14T09:10:44.444Z,14.40
2018-05-14T09:13:11.414Z,14.67
2018-05-14T09:15:37.646Z,11.80
2018-05-14T09:18:04.604Z,11.23
2018-05-14T09:20:30.834Z,11.30
2018-05-14T09:22:57.816Z,11.40
2018-05-14T09:25:24.262Z,11.33
2018-05-14T09:27:50.401Z,12.27
2018-05-14T09:30:16.652Z,12.83
2018-05-14T09:32:42.894Z,13.63
2018-05-14T09:35:09.149Z,12.97
2018-05-14T09:37:35.389Z,11.73
2018-05-14T09:40:01.664Z,15.47
2018-05-14T09:42:27.871Z,15.10
2018-05-14T09:44:54.143Z,13.20
2018-05-14T09:47:20.327Z,14.50
2018-05-14T09:49:46.548Z,15.83
2018-05-14T09:52:12.784Z,13.50
2018-05-14T09:54:39.005Z,15.07
2018-05-14T09:57:05.265Z,12.63
2018-05-14T09:59:31.491Z,13.63
2018-05-14T10:01:57.727Z,11.10
2018-05-14T10:04:23.935Z,12.17
2018-05-14T10:06:50.158Z,11.77
2018-05-14T10:09:16.369Z,13.50
2018-05-14T10:11:42.641Z,12.00
2018-05-14T10:14:08.890Z,12.40
2018-05-14T10:16:35.115Z,12.57
2018-05-14T10:19:01.336Z,11.63
2018-05-14T10:21:27.572Z,10.13
2018-05-14T10:23:54.520Z,10.13
2018-05-14T10:26:21.514Z,10.70
2018-05-14T10:28:47.733Z,11.23
2018-05-14T10:31:13.988Z,12.73
2018-05-14T10:33:40.192Z,13.70
2018-05-14T10:36:06.427Z,13.77
2018-05-14T10:38:32.683Z,12.97
2018-05-14T10:40:58.895Z,12.53
2018-05-14T10:43:25.149Z,12.10
2018-05-14T10:45:51.361Z,12.57
2018-05-14T10:48:17.599Z,9.90
2018-05-14T10:50:43.816Z,9.13
2018-05-14T10:53:10.093Z,7.63
2018-05-14T10:55:36.353Z,8.87
2018-05-14T10:58:02.624Z,8.00
2018-05-14T11:00:28.868Z,7.40
2018-05-14T11:02:55.128Z,7.10
2018-05-14T11:05:21.365Z,6.97
2018-05-14T11:07:47.598Z,6.30
2018-05-14T11:10:13.848Z,6.13
2018-05-14T11:12:40.112Z,4.90
2018-05-14T11:15:06.350Z,6.17
2018-05-14T11:17:32.602Z,6.57
2018-05-14T11:19:58.847Z,6.27
2018-05-14T11:22:25.080Z,6.23
2018-05-14T11:24:51.349Z,7.20
2018-05-14T11:27:18.415Z,9.70
2018-05-14T11:29:44.670Z,9.13
2018-05-14T11:32:10.892Z,9.23
2018-05-14T11:34:37.870Z,9.67
2018-05-14T11:37:04.153Z,8.27
2018-05-14T11:39:30.403Z,7.30
2018-05-14T11:41:56.636Z,8.90
2018-05-14T11:44:22.872Z,8.17
2018-05-14T11:46:49.125Z,8.57
2018-05-14T11:49:15.381Z,7.63
2018-05-14T11:51:42.349Z,6.67
2018-05-14T11:54:09.305Z,6.13
2018-05-14T11:56:35.549Z,6.13
2018-05-14T11:59:01.789Z,5.47
2018-05-14T12:01:28.028Z,5.03
2018-05-14T12:03:55.005Z,4.97
2018-05-14T12:06:21.240Z,4.67
2018-05-14T12:08:48.234Z,4.30
2018-05-14T12:11:14.459Z,4.60
2018-05-14T12:13:40.680Z,5.57
2018-05-14T12:16:06.961Z,5.70
2018-05-14T12:18:33.933Z,5.53
2018-05-14T12:21:00.160Z,5.67
2018-05-14T12:23:26.390Z,6.37
2018-05-14T12:25:52.630Z,6.50
2018-05-14T12:28:18.881Z,6.90
2018-05-14T12:30:45.114Z,6.67
2018-05-14T12:33:11.324Z,7.37
2018-05-14T12:35:37.590Z,6.17
2018-05-14T12:38:03.812Z,5.43
2018-05-14T12:40:30.042Z,4.03
2018-05-14T12:42:57.000Z,5.20
2018-05-14T12:45:23.973Z,5.50
2018-05-14T12:47:50.216Z,5.60
2018-05-14T12:50:16.482Z,5.50
2018-05-14T12:52:42.716Z,5.20
2018-05-14T12:55:08.944Z,6.87
2018-05-14T12:57:35.167Z,5.27
2018-05-14T13:00:01.418Z,5.30
2018-05-14T13:02:27.654Z,5.07
2018-05-14T13:04:53.959Z,5.10
2018-05-14T13:07:20.172Z,4.53
2018-05-14T13:09:46.406Z,4.87
2018-05-14T13:12:12.626Z,4.30
2018-05-14T13:14:38.855Z,4.00
2018-05-14T13:17:05.125Z,4.30
2018-05-14T13:19:31.358Z,4.60
2018-05-14T13:21:57.578Z,5.00
2018-05-14T13:24:23.794Z,3.93
2018-05-14T13:26:50.804Z,4.10
2018-05-14T13:29:17.054Z,4.63
2018-05-14T13:31:43.313Z,4.07
2018-05-14T13:34:09.562Z,5.53
2018-05-14T13:36:35.801Z,4.77
2018-05-14T13:39:02.105Z,4.83
2018-05-14T13:41:28.352Z,4.20
2018-05-14T13:43:54.571Z,4.53
2018-05-14T13:46:20.826Z,6.33
2018-05-14T13:48:47.101Z,6.70
2018-05-14T13:51:13.360Z,4.30
2018-05-14T13:53:40.324Z,3.73
2018-05-14T13:56:07.360Z,3.57
2018-05-14T13:58:33.590Z,4.00
2018-05-14T14:00:59.872Z,3.73
2018-05-14T14:03:26.134Z,3.67
2018-05-14T14:05:52.413Z,4.03
2018-05-14T14:08:18.662Z,3.60
2018-05-14T14:10:44.898Z,3.93
2018-05-14T14:13:11.166Z,3.00
2018-05-14T14:15:38.130Z,3.50
2018-05-14T14:18:05.115Z,3.20
2018-05-14T14:20:31.373Z,3.27
2018-05-14T14:22:57.642Z,3.53
2018-05-14T14:25:23.876Z,2.97
2018-05-14T14:27:50.157Z,3.63
2018-05-14T14:30:17.164Z,3.43
2018-05-14T14:32:43.441Z,3.17
2018-05-14T14:35:10.431Z,3.40
2018-05-14T14:37:36.705Z,3.90
2018-05-14T14:40:03.001Z,3.23
2018-05-14T14:42:29.991Z,3.60
2018-05-14T14:44:56.229Z,2.90
2018-05-14T14:47:22.511Z,3.70
2018-05-14T14:49:48.737Z,3.40
2018-05-14T14:52:14.975Z,4.83
2018-05-14T14:54:41.298Z,4.60
2018-05-14T14:57:07.615Z,4.37
2018-05-14T14:59:33.926Z,4.80
2018-05-14T15:02:00.959Z,4.90
2018-05-14T15:04:27.261Z,5.00
2018-05-14T15:06:53.590Z,3.70
2018-05-14T15:09:19.766Z,4.50
2018-05-14T15:11:46.004Z,4.60
2018-05-14T15:14:12.263Z,4.40
2018-05-14T15:16:38.499Z,3.90
2018-05-14T15:19:04.739Z,4.57
2018-05-14T15:21:31.710Z,3.73
2018-05-14T15:23:57.950Z,3.97
2018-05-14T15:26:24.257Z,3.70
2018-05-14T15:28:50.510Z,3.67
2018-05-14T15:31:16.791Z,4.37
2018-05-14T15:33:43.049Z,3.60
2018-05-14T15:36:10.035Z,3.97
2018-05-14T15:38:36.270Z,3.80
2018-05-14T15:41:02.497Z,4.10
2018-05-14T15:43:28.754Z,4.23
2018-05-14T15:45:54.994Z,3.80
2018-05-14T15:48:21.253Z,4.40
2018-05-14T15:50:47.488Z,3.80
2018-05-14T15:53:13.740Z,4.30
2018-05-14T15:55:39.996Z,4.43
2018-05-14T15:58:06.246Z,4.80
2018-05-14T16:00:32.472Z,4.00
2018-05-14T16:02:58.743Z,3.80
2018-05-14T16:05:24.975Z,3.87
2018-05-14T16:07:51.219Z,3.87
2018-05-14T16:10:17.486Z,3.50
2018-05-14T16:12:43.699Z,3.30
2018-05-14T16:15:09.962Z,3.97
2018-05-14T16:17:36.206Z,3.40
2018-05-14T16:20:03.238Z,3.40
2018-05-14T16:22:29.464Z,4.00
2018-05-14T16:24:55.722Z,3.50
2018-05-14T16:27:21.951Z,3.50
2018-05-14T16:29:48.229Z,2.93
2018-05-14T16:32:14.542Z,3.33
2018-05-14T16:34:40.789Z,2.93
2018-05-14T16:37:07.049Z,3.23
2018-05-14T16:39:34.026Z,3.07
2018-05-14T16:42:00.310Z,2.13
2018-05-14T16:44:26.541Z,2.77
2018-05-14T16:46:52.792Z,3.17
2018-05-14T16:49:19.060Z,4.13
2018-05-14T16:51:45.297Z,2.90
2018-05-14T16:54:12.314Z,3.53
2018-05-14T16:56:38.540Z,3.50
2018-05-14T16:59:04.828Z,3.13
2018-05-14T17:01:31.077Z,3.63
2018-05-14T17:03:57.363Z,3.23
2018-05-14T17:06:23.614Z,3.23
2018-05-14T17:08:49.852Z,3.60
2018-05-14T17:11:16.100Z,2.90
2018-05-14T17:13:43.079Z,3.77
2018-05-14T17:16:09.349Z,3.50
2018-05-14T17:18:36.331Z,2.97
2018-05-14T17:21:02.595Z,3.40
2018-05-14T17:23:28.840Z,3.40
2018-05-14T17:25:55.079Z,3.90
2018-05-14T17:28:21.367Z,3.60
2018-05-14T17:30:48.400Z,2.90
2018-05-14T17:33:14.680Z,3.40
2018-05-14T17:35:40.926Z,2.97
2018-05-14T17:38:07.175Z,3.20
2018-05-14T17:40:33.441Z,3.13
2018-05-14T17:42:59.690Z,3.70
2018-05-14T17:45:25.936Z,3.30
2018-05-14T17:47:52.171Z,3.30
2018-05-14T17:50:18.462Z,3.63
2018-05-14T17:52:44.748Z,3.87
2018-05-14T17:55:10.987Z,3.30
2018-05-14T17:57:37.371Z,3.80
2018-05-14T18:00:03.708Z,4.07
2018-05-14T18:02:29.974Z,3.50
2018-05-14T18:04:56.997Z,3.97
2018-05-14T18:07:23.274Z,3.80
2018-05-14T18:09:50.298Z,3.43
2018-05-14T18:12:16.555Z,4.07
2018-05-14T18:14:42.867Z,4.30
2018-05-14T18:17:09.193Z,3.37
2018-05-14T18:19:41.596Z,3.23
2018-05-14T18:22:11.771Z,3.27
2018-05-14T18:24:38.868Z,3.43
2018-05-14T18:27:08.107Z,2.70
2018-05-14T18:29:35.224Z,3.40
2018-05-14T18:32:04.533Z,2.73
2018-05-14T18:34:39.006Z,3.57
2018-05-14T18:37:05.291Z,3.37
2018-05-14T18:39:32.351Z,3.20
2018-05-14T18:41:58.691Z,3.03
2018-05-14T18:44:31.669Z,2.70
2018-05-14T18:46:58.016Z,3.10
2018-05-14T18:49:24.348Z,3.47
2018-05-14T18:51:50.744Z,3.40
2018-05-14T18:54:17.034Z,2.80
2018-05-14T18:56:43.370Z,4.17
2018-05-14T18:59:09.691Z,3.43
2018-05-14T19:01:36.102Z,3.47
2018-05-14T19:04:03.295Z,3.70
2018-05-14T19:06:30.508Z,3.20
2018-05-14T19:08:56.830Z,3.30
2018-05-14T19:11:29.118Z,3.87
2018-05-14T19:13:55.741Z,3.60
2018-05-14T19:16:28.216Z,3.77
2018-05-14T19:18:54.561Z,4.00
2018-05-14T19:21:20.848Z,3.63
2018-05-14T19:23:57.148Z,4.33
2018-05-14T19:26:23.485Z,3.67
2018-05-14T19:28:56.488Z,3.73
2018-05-14T19:31:23.581Z,3.50
2018-05-14T19:33:55.990Z,3.43
2018-05-14T19:36:22.643Z,3.10
2018-05-14T19:38:48.910Z,3.77
2018-05-14T19:41:16.230Z,3.50
2018-05-14T19:43:42.522Z,3.47
2018-05-14T19:46:09.601Z,3.97
2018-05-14T19:48:35.926Z,3.83
2018-05-14T19:51:03.116Z,3.93
2018-05-14T19:53:29.359Z,2.83
2018-05-14T19:55:55.665Z,3.60
2018-05-14T19:58:21.955Z,3.93
2018-05-14T20:00:48.265Z,3.73
2018-05-14T20:03:15.383Z,3.57
2018-05-14T20:05:41.718Z,3.87
2018-05-14T20:08:08.021Z,3.57
2018-05-14T20:10:35.076Z,3.70
2018-05-14T20:13:02.131Z,4.00
2018-05-14T20:15:29.188Z,3.03
2018-05-14T20:17:56.212Z,3.80
2018-05-14T20:20:22.482Z,3.40
2018-05-14T20:22:48.762Z,4.40
2018-05-14T20:25:15.062Z,3.50
2018-05-14T20:27:41.320Z,4.00
2018-05-14T20:30:08.294Z,3.80
2018-05-14T20:32:34.556Z,3.97
2018-05-14T20:35:00.823Z,4.20
2018-05-14T20:37:27.192Z,4.50
2018-05-14T20:39:53.369Z,3.83
2018-05-14T20:42:19.612Z,3.77
2018-05-14T20:44:45.853Z,4.50
2018-05-14T20:47:12.130Z,4.20
2018-05-14T20:49:38.356Z,4.07
2018-05-14T20:52:04.700Z,4.27
2018-05-14T20:54:30.854Z,4.30
2018-05-14T20:56:57.103Z,4.03
2018-05-14T20:59:23.325Z,4.27
2018-05-14T21:01:49.585Z,4.07
2018-05-14T21:04:15.907Z,3.80
2018-05-14T21:06:42.191Z,3.63
2018-05-14T21:09:09.194Z,4.73
2018-05-14T21:11:35.451Z,4.33
2018-05-14T21:14:01.690Z,4.23
2018-05-14T21:16:27.909Z,4.80
2018-05-14T21:18:54.161Z,5.20
2018-05-14T21:21:20.363Z,4.30
2018-05-14T21:23:47.355Z,4.00
2018-05-14T21:26:13.578Z,4.00
2018-05-14T21:28:39.804Z,5.00
2018-05-14T21:31:06.015Z,4.33
2018-05-14T21:33:32.237Z,4.50
2018-05-14T21:35:58.473Z,4.33
2018-05-14T21:38:24.740Z,4.50
2018-05-14T21:40:50.958Z,4.60
2018-05-14T21:43:17.211Z,4.57
2018-05-14T21:45:43.427Z,4.70
2018-05-14T21:48:09.638Z,3.80
2018-05-14T21:50:35.866Z,5.27
2018-05-14T21:53:02.155Z,4.77
2018-05-14T21:55:28.338Z,4.33
2018-05-14T21:57:55.338Z,5.20
2018-05-14T22:00:21.542Z,4.53
2018-05-14T22:02:48.512Z,5.00
2018-05-14T22:05:14.818Z,4.53
2018-05-14T22:07:41.038Z,4.90
2018-05-14T22:10:07.282Z,9.13
2018-05-14T22:12:33.525Z,5.20
2018-05-14T22:14:59.741Z,4.90
2018-05-14T22:17:26.030Z,4.80
2018-05-14T22:19:52.999Z,5.10
2018-05-14T22:22:19.965Z,5.03
2018-05-14T22:24:46.182Z,4.50
2018-05-14T22:27:13.173Z,5.57
2018-05-14T22:29:39.402Z,4.60
2018-05-14T22:32:05.634Z,5.07
2018-05-14T22:34:32.609Z,4.87
2018-05-14T22:36:59.160Z,4.97
2018-05-14T22:39:25.392Z,5.17
2018-05-14T22:41:51.620Z,4.90
2018-05-14T22:44:18.600Z,4.73
2018-05-14T22:46:44.833Z,5.70
2018-05-14T22:49:11.068Z,4.40
2018-05-14T22:51:37.307Z,4.43
2018-05-14T22:54:04.289Z,5.00
2018-05-14T22:56:30.533Z,4.90
2018-05-14T22:58:56.761Z,5.27
2018-05-14T23:01:22.981Z,5.50
2018-05-14T23:03:50.003Z,5.80
2018-05-14T23:06:16.275Z,6.03
2018-05-14T23:08:42.489Z,4.17
2018-05-14T23:11:08.701Z,5.53
2018-05-14T23:13:34.925Z,5.47
2018-05-14T23:16:01.143Z,4.90
2018-05-14T23:18:28.107Z,5.30
2018-05-14T23:20:54.321Z,4.50
2018-05-14T23:23:22.043Z,5.57
2018-05-14T23:25:48.361Z,5.70
2018-05-14T23:28:14.595Z,5.00
2018-05-14T23:30:40.835Z,5.20
2018-05-14T23:33:07.827Z,5.43
2018-05-14T23:35:34.047Z,5.67
2018-05-14T23:38:00.289Z,6.13
2018-05-14T23:40:26.507Z,5.20
2018-05-14T23:42:53.453Z,5.10
2018-05-14T23:45:19.711Z,5.90
2018-05-14T23:47:46.685Z,4.87
2018-05-14T23:50:12.917Z,5.57
2018-05-14T23:52:39.148Z,6.23
2018-05-14T23:55:06.126Z,5.47
2018-05-14T23:57:32.358Z,6.00
2018-05-14T23:59:58.602Z,5.70
